createdAt,value
2022-10-20T00:01:20.603Z,11.31
2022-10-20T00:03:48.462Z,11.42
2022-10-20T00:06:21.722Z,11.45
2022-10-20T00:08:49.191Z,11.37
2022-10-20T00:11:19.200Z,11.35
2022-10-20T00:13:47.474Z,11.30
2022-10-20T00:16:14.954Z,11.33
2022-10-20T00:18:42.322Z,11.30
2022-10-20T00:21:13.034Z,11.25
2022-10-20T00:23:39.912Z,11.28
2022-10-20T00:26:12.411Z,11.10
2022-10-20T00:28:39.723Z,11.16
2022-10-20T00:31:07.235Z,11.31
2022-10-20T00:33:34.930Z,11.12
2022-10-20T00:36:07.875Z,11.13
2022-10-20T00:38:35.365Z,11.17
2022-10-20T00:41:05.247Z,11.26
2022-10-20T00:44:21.136Z,11.33
2022-10-20T00:46:48.128Z,11.04
2022-10-20T00:49:22.106Z,11.22
2022-10-20T00:51:49.961Z,11.20
2022-10-20T00:54:20.611Z,11.39
2022-10-20T00:56:49.804Z,11.43
2022-10-20T00:59:22.535Z,11.31
2022-10-20T01:01:50.237Z,11.02
2022-10-20T01:04:18.167Z,11.19
2022-10-20T01:06:45.725Z,10.96
2022-10-20T01:09:12.855Z,11.16
2022-10-20T01:12:18.283Z,11.28
2022-10-20T01:15:09.176Z,11.26
2022-10-20T01:17:54.277Z,11.38
2022-10-20T01:20:35.971Z,11.36
2022-10-20T01:23:29.174Z,11.24
2022-10-20T01:26:33.764Z,11.41
2022-10-20T01:29:45.329Z,11.45
2022-10-20T01:32:17.932Z,11.45
2022-10-20T01:34:53.000Z,11.51
2022-10-20T01:37:48.422Z,11.22
2022-10-20T01:40:27.902Z,11.40
2022-10-20T01:42:58.583Z,11.25
2022-10-20T01:45:29.371Z,11.55
2022-10-20T01:47:59.482Z,11.56
2022-10-20T01:50:26.978Z,11.45
2022-10-20T01:53:00.575Z,11.65
2022-10-20T01:55:27.999Z,11.49
2022-10-20T01:58:27.216Z,11.79
2022-10-20T02:01:08.383Z,11.78
2022-10-20T02:03:41.091Z,11.78
2022-10-20T02:06:22.517Z,11.84
2022-10-20T02:09:05.770Z,11.88
2022-10-20T02:11:40.054Z,11.65
2022-10-20T02:14:10.331Z,12.10
2022-10-20T02:16:42.320Z,11.62
2022-10-20T02:19:11.614Z,11.92
2022-10-20T02:21:38.782Z,11.81
2022-10-20T02:24:08.730Z,11.70
2022-10-20T02:26:38.883Z,11.44
2022-10-20T02:29:14.254Z,11.71
2022-10-20T02:31:42.396Z,11.80
2022-10-20T02:34:09.907Z,11.50
2022-10-20T02:36:42.104Z,11.52
2022-10-20T02:39:10.194Z,11.45
2022-10-20T02:41:37.517Z,11.62
2022-10-20T02:44:04.525Z,11.73
2022-10-20T02:46:31.453Z,11.49
2022-10-20T02:48:58.343Z,11.40
2022-10-20T02:51:25.240Z,11.78
2022-10-20T02:53:52.183Z,11.59
2022-10-20T02:56:19.598Z,11.79
2022-10-20T02:58:46.634Z,11.78
2022-10-20T03:01:13.605Z,11.62
2022-10-20T03:03:40.652Z,11.47
2022-10-20T03:06:16.156Z,11.59
2022-10-20T03:08:43.463Z,11.53
2022-10-20T03:11:10.426Z,11.49
2022-10-20T03:13:37.329Z,11.79
2022-10-20T03:16:04.264Z,11.84
2022-10-20T03:18:31.307Z,11.72
2022-10-20T03:20:58.219Z,11.51
2022-10-20T03:23:25.259Z,11.77
2022-10-20T03:25:52.158Z,11.49
2022-10-20T03:28:19.738Z,11.82
2022-10-20T03:30:47.284Z,11.58
2022-10-20T03:33:14.236Z,11.77
2022-10-20T03:35:41.153Z,11.60
2022-10-20T03:38:08.099Z,11.61
2022-10-20T03:40:35.232Z,11.52
2022-10-20T03:43:02.184Z,11.63
2022-10-20T03:45:29.203Z,11.50
2022-10-20T03:47:56.104Z,11.52
2022-10-20T03:50:23.177Z,11.58
2022-10-20T03:52:50.551Z,11.44
2022-10-20T03:55:19.147Z,11.52
2022-10-20T03:57:46.307Z,11.48
2022-10-20T04:00:13.380Z,11.49
2022-10-20T04:02:44.090Z,11.51
2022-10-20T04:05:17.554Z,11.43
2022-10-20T04:07:44.997Z,11.24
2022-10-20T04:10:12.846Z,11.38
2022-10-20T04:12:39.938Z,11.09
2022-10-20T04:15:07.918Z,10.91
2022-10-20T04:17:36.950Z,11.09
2022-10-20T04:20:05.435Z,11.30
2022-10-20T04:22:32.380Z,11.27
2022-10-20T04:24:59.429Z,11.20
2022-10-20T04:27:26.311Z,10.94
2022-10-20T04:29:53.277Z,11.02
2022-10-20T04:32:20.227Z,11.28
2022-10-20T04:34:47.190Z,10.92
2022-10-20T04:37:14.110Z,10.86
2022-10-20T04:39:41.056Z,10.78
2022-10-20T04:42:08.014Z,11.05
2022-10-20T04:44:35.002Z,11.15
2022-10-20T04:47:01.946Z,11.04
2022-10-20T04:49:28.934Z,10.86
2022-10-20T04:52:00.618Z,10.62
2022-10-20T04:54:27.899Z,10.73
2022-10-20T04:56:54.911Z,10.73
2022-10-20T04:59:21.915Z,10.47
2022-10-20T05:01:48.855Z,10.47
2022-10-20T05:04:21.445Z,10.46
2022-10-20T05:06:49.555Z,10.32
2022-10-20T05:09:17.088Z,10.11
2022-10-20T05:11:44.163Z,9.86
2022-10-20T05:14:11.158Z,10.05
2022-10-20T05:16:38.160Z,9.81
2022-10-20T05:19:05.439Z,9.79
2022-10-20T05:21:32.556Z,9.94
2022-10-20T05:24:04.283Z,9.64
2022-10-20T05:26:35.854Z,9.91
2022-10-20T05:29:08.377Z,9.87
2022-10-20T05:31:42.948Z,9.85
2022-10-20T05:34:11.735Z,9.81
2022-10-20T05:36:38.990Z,9.68
2022-10-20T05:39:06.311Z,9.72
2022-10-20T05:41:37.820Z,9.77
2022-10-20T05:44:08.976Z,9.82
2022-10-20T05:46:41.589Z,9.84
2022-10-20T05:49:16.747Z,9.77
2022-10-20T05:51:44.500Z,9.86
2022-10-20T05:54:13.454Z,9.89
2022-10-20T05:56:40.394Z,9.58
2022-10-20T05:59:07.687Z,9.13
2022-10-20T06:01:48.440Z,9.67
2022-10-20T06:04:23.993Z,9.84
2022-10-20T06:06:52.641Z,10.01
2022-10-20T06:09:20.789Z,9.65
2022-10-20T06:11:48.753Z,9.88
2022-10-20T06:14:16.060Z,9.89
2022-10-20T06:16:43.867Z,9.79
2022-10-20T06:19:11.325Z,9.82
2022-10-20T06:21:38.866Z,9.91
2022-10-20T06:24:07.129Z,9.62
2022-10-20T06:26:38.788Z,9.72
2022-10-20T06:29:08.372Z,9.87
2022-10-20T06:31:44.243Z,10.02
2022-10-20T06:34:14.820Z,10.05
2022-10-20T06:36:42.826Z,9.77
2022-10-20T06:39:13.028Z,9.99
2022-10-20T06:41:40.536Z,9.76
2022-10-20T06:44:14.558Z,9.94
2022-10-20T06:46:41.525Z,9.81
2022-10-20T06:49:09.699Z,10.03
2022-10-20T06:51:37.574Z,9.86
2022-10-20T06:54:05.363Z,10.11
2022-10-20T06:56:35.018Z,9.87
2022-10-20T06:59:02.512Z,10.05
2022-10-20T07:01:32.213Z,9.92
2022-10-20T07:04:02.497Z,9.95
2022-10-20T07:06:32.113Z,10.21
2022-10-20T07:09:00.516Z,10.44
2022-10-20T07:11:29.675Z,10.60
2022-10-20T07:13:59.013Z,10.54
2022-10-20T07:16:29.030Z,10.63
2022-10-20T07:18:57.466Z,10.75
2022-10-20T07:21:30.837Z,10.74
2022-10-20T07:24:02.033Z,10.96
2022-10-20T07:26:31.532Z,11.05
2022-10-20T07:29:01.371Z,10.80
2022-10-20T07:31:36.825Z,10.91
2022-10-20T07:34:20.350Z,11.32
2022-10-20T07:36:51.675Z,11.38
2022-10-20T07:39:18.666Z,11.52
2022-10-20T07:41:47.542Z,11.45
2022-10-20T07:44:15.292Z,11.48
2022-10-20T07:46:42.291Z,11.61
2022-10-20T07:51:56.271Z,11.64
2022-10-20T07:54:23.256Z,11.80
2022-10-20T07:56:51.099Z,11.84
2022-10-20T07:59:18.190Z,11.86
2022-10-20T08:01:45.307Z,11.76
2022-10-20T08:04:12.271Z,12.36
2022-10-20T08:06:39.599Z,12.41
2022-10-20T08:09:07.458Z,12.26
2022-10-20T08:11:35.441Z,12.34
2022-10-20T08:14:02.607Z,12.52
2022-10-20T08:16:30.016Z,12.38
2022-10-20T08:18:59.948Z,12.68
2022-10-20T08:21:26.976Z,12.75
2022-10-20T08:23:54.023Z,12.69
2022-10-20T08:26:23.451Z,13.06
2022-10-20T08:28:53.058Z,13.14
2022-10-20T08:31:20.723Z,12.98
2022-10-20T08:33:52.262Z,13.10
2022-10-20T08:36:21.246Z,13.40
2022-10-20T08:38:49.049Z,13.43
2022-10-20T08:42:06.282Z,13.62
2022-10-20T08:44:35.050Z,13.73
2022-10-20T08:47:05.301Z,14.01
2022-10-20T08:49:35.187Z,14.03
2022-10-20T08:52:02.299Z,14.10
2022-10-20T08:54:32.331Z,14.01
2022-10-20T08:56:59.327Z,13.98
2022-10-20T08:59:30.024Z,14.14
2022-10-20T09:01:58.098Z,14.13
2022-10-20T09:04:37.979Z,14.12
2022-10-20T09:07:18.765Z,14.08
2022-10-20T09:09:46.111Z,14.04
2022-10-20T09:12:15.205Z,14.45
2022-10-20T09:14:42.418Z,14.29
2022-10-20T09:17:19.363Z,14.39
2022-10-20T09:19:52.402Z,14.65
2022-10-20T09:22:20.681Z,14.80
2022-10-20T09:24:49.239Z,14.79
2022-10-20T09:27:20.973Z,15.00
2022-10-20T09:29:48.017Z,15.04
2022-10-20T09:32:45.541Z,15.23
2022-10-20T09:35:15.394Z,15.23
2022-10-20T09:37:49.306Z,15.17
2022-10-20T09:40:18.466Z,15.39
2022-10-20T09:42:51.384Z,15.36
2022-10-20T09:45:23.199Z,15.53
2022-10-20T09:47:58.688Z,15.65
2022-10-20T09:50:35.525Z,15.81
2022-10-20T09:53:06.559Z,15.74
2022-10-20T09:55:37.599Z,15.96
2022-10-20T09:58:06.232Z,15.72
2022-10-20T10:00:46.746Z,16.00
2022-10-20T10:03:24.379Z,16.16
2022-10-20T10:05:59.852Z,16.07
2022-10-20T10:08:44.094Z,16.38
2022-10-20T10:11:20.550Z,16.54
2022-10-20T10:13:50.579Z,16.52
2022-10-20T10:16:22.074Z,16.42
2022-10-20T10:19:02.137Z,16.58
2022-10-20T10:21:45.414Z,16.41
2022-10-20T10:24:49.095Z,16.66
2022-10-20T10:27:27.308Z,16.70
2022-10-20T10:29:56.137Z,16.71
2022-10-20T10:32:28.371Z,16.80
2022-10-20T10:35:17.252Z,16.89
2022-10-20T10:37:46.357Z,16.77
2022-10-20T10:40:16.340Z,16.91
2022-10-20T10:43:11.630Z,16.79
2022-10-20T10:45:45.483Z,17.02
2022-10-20T10:48:30.539Z,17.12
2022-10-20T10:51:00.579Z,17.00
2022-10-20T10:53:50.337Z,17.27
2022-10-20T10:56:23.181Z,17.36
2022-10-20T10:58:58.525Z,17.28
2022-10-20T11:01:58.839Z,17.38
2022-10-20T11:04:52.035Z,17.37
2022-10-20T11:07:39.193Z,17.59
2022-10-20T11:10:26.316Z,17.66
2022-10-20T11:13:02.519Z,17.61
2022-10-20T11:16:07.693Z,17.79
2022-10-20T11:19:08.447Z,17.92
2022-10-20T11:21:40.819Z,17.92
2022-10-20T11:24:26.364Z,17.93
2022-10-20T11:27:14.912Z,17.83
2022-10-20T11:30:08.752Z,17.73
2022-10-20T11:32:48.280Z,17.80
2022-10-20T11:35:40.063Z,17.81
2022-10-20T11:38:19.390Z,17.75
2022-10-20T11:40:55.603Z,17.82
2022-10-20T11:43:41.324Z,17.84
2022-10-20T11:46:14.388Z,17.87
2022-10-20T11:48:57.315Z,17.91
2022-10-20T11:51:32.157Z,17.91
2022-10-20T11:54:05.050Z,17.93
2022-10-20T11:56:56.761Z,17.73
2022-10-20T11:59:29.272Z,17.96
2022-10-20T12:02:20.930Z,18.02
2022-10-20T12:05:15.441Z,18.00
2022-10-20T12:07:54.132Z,18.07
2022-10-20T12:10:39.790Z,18.05
2022-10-20T12:13:46.701Z,17.90
2022-10-20T12:16:33.630Z,17.87
2022-10-20T12:19:17.323Z,18.20
2022-10-20T12:22:01.371Z,18.23
2022-10-20T12:24:38.717Z,18.24
2022-10-20T12:27:08.529Z,18.26
2022-10-20T12:29:35.435Z,18.31
2022-10-20T12:32:27.455Z,18.31
2022-10-20T12:35:00.187Z,18.25
2022-10-20T12:37:34.787Z,18.39
2022-10-20T12:40:07.938Z,18.53
2022-10-20T12:42:39.609Z,18.63
2022-10-20T12:45:33.045Z,18.64
2022-10-20T12:48:02.468Z,18.72
2022-10-20T12:50:35.202Z,18.74
2022-10-20T12:53:14.330Z,18.86
2022-10-20T12:55:43.259Z,18.96
2022-10-20T12:58:19.031Z,18.99
2022-10-20T13:00:51.813Z,18.97
2022-10-20T13:03:43.130Z,19.09
2022-10-20T13:06:27.009Z,19.20
2022-10-20T13:09:02.862Z,19.19
2022-10-20T13:11:36.158Z,19.24
2022-10-20T13:14:28.002Z,19.37
2022-10-20T13:17:20.798Z,19.27
2022-10-20T13:20:01.233Z,19.27
2022-10-20T13:22:44.745Z,19.44
2022-10-20T13:25:34.675Z,19.60
2022-10-20T13:28:06.128Z,19.62
2022-10-20T13:30:36.232Z,19.42
2022-10-20T13:34:02.751Z,19.64
2022-10-20T13:36:35.081Z,19.61
2022-10-20T13:39:11.372Z,19.60
2022-10-20T13:42:33.883Z,19.46
2022-10-20T13:45:21.473Z,19.53
2022-10-20T13:47:55.390Z,19.44
2022-10-20T13:50:34.913Z,19.28
2022-10-20T13:53:25.998Z,19.12
2022-10-20T13:56:07.103Z,19.21
2022-10-20T13:58:35.017Z,19.10
2022-10-20T14:01:06.508Z,18.89
2022-10-20T14:03:42.400Z,18.59
2022-10-20T14:06:29.524Z,18.82
2022-10-20T14:08:58.319Z,18.71
2022-10-20T14:11:30.750Z,18.63
2022-10-20T14:14:01.240Z,18.47
2022-10-20T14:16:30.501Z,18.34
2022-10-20T14:19:03.673Z,18.42
2022-10-20T14:21:40.349Z,18.30
2022-10-20T14:24:14.161Z,18.18
2022-10-20T14:26:44.245Z,17.91
2022-10-20T14:29:17.280Z,18.10
2022-10-20T14:31:47.515Z,17.90
2022-10-20T14:34:23.567Z,17.74
2022-10-20T14:36:52.342Z,17.87
2022-10-20T14:39:40.713Z,17.61
2022-10-20T14:42:23.924Z,17.68
2022-10-20T14:44:52.541Z,17.38
2022-10-20T14:47:21.003Z,17.40
2022-10-20T14:49:53.600Z,17.32
2022-10-20T14:52:30.059Z,17.40
2022-10-20T14:54:57.362Z,17.33
2022-10-20T14:57:31.218Z,17.11
2022-10-20T15:00:03.683Z,17.15
2022-10-20T15:02:38.846Z,16.82
2022-10-20T15:05:31.871Z,16.74
2022-10-20T15:08:09.668Z,16.55
2022-10-20T15:10:38.525Z,16.07
2022-10-20T15:13:05.988Z,16.02
2022-10-20T15:15:38.983Z,15.95
2022-10-20T15:18:16.509Z,16.15
2022-10-20T15:20:45.358Z,15.92
2022-10-20T15:23:19.055Z,15.99
2022-10-20T15:25:46.018Z,15.93
2022-10-20T15:28:28.065Z,15.89
2022-10-20T15:30:55.325Z,15.75
2022-10-20T15:33:22.463Z,15.67
2022-10-20T15:35:50.657Z,15.60
2022-10-20T15:38:17.561Z,15.48
2022-10-20T15:40:44.552Z,15.40
2022-10-20T15:43:16.861Z,15.22
2022-10-20T15:45:53.485Z,15.33
2022-10-20T15:48:21.154Z,15.12
2022-10-20T15:50:48.055Z,14.92
2022-10-20T15:53:17.827Z,15.20
2022-10-20T15:55:45.098Z,15.17
2022-10-20T15:58:12.426Z,14.88
2022-10-20T16:00:39.624Z,14.75
2022-10-20T16:03:07.111Z,14.84
2022-10-20T16:05:34.218Z,14.94
2022-10-20T16:08:01.191Z,14.89
2022-10-20T16:10:30.861Z,14.67
2022-10-20T16:12:58.191Z,14.73
2022-10-20T16:15:30.175Z,14.69
2022-10-20T16:17:58.676Z,14.67
2022-10-20T16:20:25.839Z,14.65
2022-10-20T16:22:52.898Z,14.60
2022-10-20T16:25:20.006Z,14.37
2022-10-20T16:27:46.990Z,14.55
2022-10-20T16:30:14.108Z,14.32
2022-10-20T16:32:41.736Z,14.30
2022-10-20T16:35:09.380Z,14.25
2022-10-20T16:37:36.860Z,14.13
2022-10-20T16:40:04.562Z,14.04
2022-10-20T16:42:32.593Z,13.99
2022-10-20T16:44:59.659Z,13.97
2022-10-20T16:47:26.743Z,13.66
2022-10-20T16:49:54.316Z,13.81
2022-10-20T16:52:21.355Z,13.77
2022-10-20T16:54:48.362Z,13.81
2022-10-20T16:57:15.429Z,13.52
2022-10-20T16:59:43.383Z,13.58
2022-10-20T17:02:12.595Z,13.48
2022-10-20T17:04:39.803Z,13.51
2022-10-20T17:07:08.791Z,13.39
2022-10-20T17:09:35.744Z,13.59
2022-10-20T17:12:02.815Z,13.53
2022-10-20T17:14:29.764Z,13.46
2022-10-20T17:16:56.846Z,13.39
2022-10-20T17:19:23.874Z,13.12
2022-10-20T17:21:55.812Z,13.27
2022-10-20T17:24:24.526Z,13.34
2022-10-20T17:26:51.823Z,13.11
2022-10-20T17:29:23.734Z,13.06
2022-10-20T17:31:52.843Z,13.24
2022-10-20T17:34:19.961Z,12.87
2022-10-20T17:36:46.878Z,13.09
2022-10-20T17:39:16.890Z,13.10
2022-10-20T17:41:44.274Z,12.95
2022-10-20T17:44:11.616Z,12.94
2022-10-20T17:46:39.001Z,12.99
2022-10-20T17:49:06.567Z,13.01
2022-10-20T17:51:34.927Z,13.15
2022-10-20T17:54:03.158Z,13.09
2022-10-20T17:56:38.167Z,13.12
2022-10-20T17:59:06.603Z,13.10
2022-10-20T18:01:39.509Z,13.06
2022-10-20T18:04:09.813Z,13.05
2022-10-20T18:06:37.862Z,12.91
2022-10-20T18:09:13.387Z,13.04
2022-10-20T18:11:43.266Z,12.89
2022-10-20T18:14:10.492Z,12.75
2022-10-20T18:16:39.649Z,12.92
2022-10-20T18:19:16.676Z,12.89
2022-10-20T18:21:44.104Z,12.87
2022-10-20T18:24:13.781Z,12.84
2022-10-20T18:26:41.069Z,12.58
2022-10-20T18:29:10.506Z,12.75
2022-10-20T18:31:39.737Z,12.55
2022-10-20T18:34:09.447Z,12.44
2022-10-20T18:36:40.329Z,12.69
2022-10-20T18:39:10.995Z,12.57
2022-10-20T18:41:39.900Z,12.34
2022-10-20T18:44:10.934Z,12.20
2022-10-20T18:46:38.138Z,12.34
2022-10-20T18:49:07.392Z,12.19
2022-10-20T18:51:35.526Z,12.30
2022-10-20T18:54:04.564Z,12.12
2022-10-20T18:56:31.756Z,11.86
2022-10-20T18:59:00.876Z,12.08
2022-10-20T19:01:33.652Z,12.06
2022-10-20T19:04:01.408Z,12.15
2022-10-20T19:06:30.929Z,11.89
2022-10-20T19:09:00.680Z,12.15
2022-10-20T19:11:32.263Z,12.08
2022-10-20T19:13:59.532Z,12.17
2022-10-20T19:16:29.929Z,12.17
2022-10-20T19:18:59.691Z,12.07
2022-10-20T19:21:28.570Z,12.07
2022-10-20T19:24:08.447Z,12.13
2022-10-20T19:26:39.938Z,12.02
2022-10-20T19:29:10.460Z,12.01
2022-10-20T19:31:43.766Z,11.98
2022-10-20T19:34:31.824Z,11.92
2022-10-20T19:36:59.997Z,11.86
2022-10-20T19:39:31.188Z,11.88
2022-10-20T19:41:59.669Z,11.57
2022-10-20T19:44:27.676Z,11.51
2022-10-20T19:46:54.859Z,11.68
2022-10-20T19:49:23.349Z,11.79
2022-10-20T19:51:50.854Z,11.71
2022-10-20T19:54:18.135Z,11.75
2022-10-20T19:56:45.291Z,11.57
2022-10-20T19:59:12.568Z,11.62
2022-10-20T20:01:39.728Z,11.43
2022-10-20T20:04:07.634Z,11.66
2022-10-20T20:06:35.496Z,11.47
2022-10-20T20:09:07.231Z,11.61
2022-10-20T20:11:36.540Z,11.30
2022-10-20T20:14:10.397Z,11.53
2022-10-20T20:16:37.777Z,11.48
2022-10-20T20:19:05.078Z,11.48
2022-10-20T20:21:32.344Z,11.36
2022-10-20T20:24:02.098Z,11.22
2022-10-20T20:26:34.456Z,11.36
2022-10-20T20:29:01.939Z,11.14
2022-10-20T20:31:29.875Z,11.14
2022-10-20T20:33:57.534Z,11.30
2022-10-20T20:36:28.815Z,11.26
2022-10-20T20:38:58.435Z,11.20
2022-10-20T20:41:27.901Z,11.24
2022-10-20T20:43:54.986Z,11.21
2022-10-20T20:46:24.081Z,11.06
2022-10-20T20:48:51.560Z,11.16
2022-10-20T20:51:18.645Z,11.15
2022-10-20T20:53:45.568Z,11.16
2022-10-20T20:56:17.215Z,11.09
2022-10-20T20:58:50.454Z,10.87
2022-10-20T21:01:22.802Z,10.94
2022-10-20T21:03:54.496Z,10.85
2022-10-20T21:06:25.711Z,11.00
2022-10-20T21:09:00.574Z,10.98
2022-10-20T21:11:27.938Z,10.77
2022-10-20T21:13:56.506Z,10.95
2022-10-20T21:16:29.716Z,10.87
2022-10-20T21:18:59.592Z,10.82
2022-10-20T21:21:35.162Z,10.68
2022-10-20T21:24:04.692Z,10.76
2022-10-20T21:26:32.556Z,10.71
2022-10-20T21:28:59.714Z,10.74
2022-10-20T21:31:28.401Z,10.68
2022-10-20T21:33:59.750Z,10.61
2022-10-20T21:36:28.657Z,10.37
2022-10-20T21:38:56.110Z,10.43
2022-10-20T21:41:25.523Z,10.60
2022-10-20T21:43:54.957Z,10.51
2022-10-20T21:46:26.709Z,10.47
2022-10-20T21:49:00.693Z,10.11
2022-10-20T21:51:36.384Z,10.27
2022-10-20T21:54:15.331Z,10.33
2022-10-20T21:56:45.286Z,10.28
2022-10-20T21:59:17.352Z,10.26
2022-10-20T22:01:44.348Z,10.18
2022-10-20T22:04:11.607Z,10.26
2022-10-20T22:06:38.863Z,10.30
2022-10-20T22:09:06.603Z,10.18
2022-10-20T22:11:37.438Z,10.09
2022-10-20T22:14:05.402Z,10.05
2022-10-20T22:16:38.221Z,9.71
2022-10-20T22:19:17.008Z,9.64
2022-10-20T22:21:46.618Z,9.86
2022-10-20T22:24:14.698Z,9.62
2022-10-20T22:26:42.227Z,9.95
2022-10-20T22:29:10.477Z,9.83
2022-10-20T22:31:38.825Z,9.78
2022-10-20T22:34:06.489Z,9.74
2022-10-20T22:36:33.527Z,9.63
2022-10-20T22:39:00.606Z,9.64
2022-10-20T22:41:27.609Z,9.59
2022-10-20T22:43:54.529Z,9.59
2022-10-20T22:46:21.483Z,9.55
2022-10-20T22:48:48.465Z,9.32
2022-10-20T22:51:16.228Z,9.24
2022-10-20T22:53:43.420Z,9.56
2022-10-20T22:56:12.187Z,9.46
2022-10-20T22:58:39.786Z,9.42
2022-10-20T23:01:15.954Z,9.43
2022-10-20T23:03:43.437Z,9.27
2022-10-20T23:06:22.134Z,9.32
2022-10-20T23:08:51.584Z,9.30
2022-10-20T23:11:19.166Z,9.40
2022-10-20T23:13:47.456Z,9.32
2022-10-20T23:16:14.866Z,9.28
2022-10-20T23:18:42.332Z,9.37
2022-10-20T23:21:09.327Z,9.40
2022-10-20T23:23:37.553Z,9.41
2022-10-20T23:26:06.101Z,9.35
2022-10-20T23:28:34.078Z,9.18
2022-10-20T23:31:20.813Z,9.31
2022-10-20T23:33:50.106Z,9.15
2022-10-20T23:36:17.200Z,8.97
2022-10-20T23:38:44.400Z,9.23
2022-10-20T23:41:11.386Z,8.99
2022-10-20T23:43:38.356Z,9.19
2022-10-20T23:46:05.993Z,9.19
2022-10-20T23:48:33.357Z,9.17
2022-10-20T23:51:00.295Z,9.05
2022-10-20T23:53:27.405Z,8.98
2022-10-20T23:55:54.489Z,8.97
2022-10-20T23:58:22.773Z,9.08
